sensor_id;sensor_type;location;lat;lon;timestamp;P1;durP1;ratioP1;P2;durP2;ratioP2
83018;SDS011;72834;40.104;18.336;2023-10-08T00:00:47;16.77;;;8.88;;
83018;SDS011;72834;40.104;18.336;2023-10-08T00:03:21;14.63;;;7.78;;
83018;SDS011;72834;40.104;18.336;2023-10-08T00:05:48;16.25;;;7.93;;
83018;SDS011;72834;40.104;18.336;2023-10-08T00:08:17;19.40;;;8.65;;
83018;SDS011;72834;40.104;18.336;2023-10-08T00:10:43;22.95;;;9.38;;
83018;SDS011;72834;40.104;18.336;2023-10-08T00:13:11;20.80;;;9.07;;
83018;SDS011;72834;40.104;18.336;2023-10-08T00:15:38;16.92;;;7.80;;
83018;SDS011;72834;40.104;18.336;2023-10-08T00:18:23;20.73;;;9.52;;
83018;SDS011;72834;40.104;18.336;2023-10-08T00:20:49;16.85;;;9.35;;
83018;SDS011;72834;40.104;18.336;2023-10-08T00:23:35;20.98;;;9.80;;
83018;SDS011;72834;40.104;18.336;2023-10-08T00:26:10;19.73;;;9.40;;
83018;SDS011;72834;40.104;18.336;2023-10-08T00:28:38;18.48;;;10.27;;
83018;SDS011;72834;40.104;18.336;2023-10-08T00:31:07;16.55;;;8.68;;
83018;SDS011;72834;40.104;18.336;2023-10-08T00:33:38;15.98;;;7.97;;
83018;SDS011;72834;40.104;18.336;2023-10-08T00:36:05;18.35;;;8.13;;
83018;SDS011;72834;40.104;18.336;2023-10-08T00:38:43;16.45;;;7.95;;
83018;SDS011;72834;40.104;18.336;2023-10-08T00:41:13;17.38;;;9.95;;
83018;SDS011;72834;40.104;18.336;2023-10-08T00:43:47;18.25;;;9.02;;
83018;SDS011;72834;40.104;18.336;2023-10-08T00:46:14;15.55;;;8.45;;
83018;SDS011;72834;40.104;18.336;2023-10-08T00:49:19;20.52;;;9.05;;
83018;SDS011;72834;40.104;18.336;2023-10-08T00:51:48;22.25;;;8.85;;
83018;SDS011;72834;40.104;18.336;2023-10-08T00:54:26;18.00;;;9.77;;
83018;SDS011;72834;40.104;18.336;2023-10-08T00:56:58;22.30;;;9.50;;
83018;SDS011;72834;40.104;18.336;2023-10-08T00:59:33;18.10;;;8.40;;
83018;SDS011;72834;40.104;18.336;2023-10-08T01:02:07;19.13;;;9.15;;
83018;SDS011;72834;40.104;18.336;2023-10-08T01:04:40;15.18;;;8.07;;
83018;SDS011;72834;40.104;18.336;2023-10-08T01:07:10;18.98;;;8.75;;
83018;SDS011;72834;40.104;18.336;2023-10-08T01:09:39;19.40;;;8.52;;
83018;SDS011;72834;40.104;18.336;2023-10-08T01:12:21;19.33;;;8.55;;
83018;SDS011;72834;40.104;18.336;2023-10-08T01:15:01;17.05;;;8.93;;
83018;SDS011;72834;40.104;18.336;2023-10-08T01:17:47;18.75;;;8.43;;
83018;SDS011;72834;40.104;18.336;2023-10-08T01:20:25;17.73;;;9.30;;
83018;SDS011;72834;40.104;18.336;2023-10-08T01:23:09;17.05;;;7.75;;
83018;SDS011;72834;40.104;18.336;2023-10-08T01:25:56;18.55;;;8.95;;
83018;SDS011;72834;40.104;18.336;2023-10-08T01:28:38;18.83;;;9.18;;
83018;SDS011;72834;40.104;18.336;2023-10-08T01:31:06;17.52;;;8.82;;
83018;SDS011;72834;40.104;18.336;2023-10-08T01:33:32;19.45;;;9.07;;
83018;SDS011;72834;40.104;18.336;2023-10-08T01:36:04;18.85;;;8.45;;
83018;SDS011;72834;40.104;18.336;2023-10-08T01:38:33;17.38;;;8.30;;
83018;SDS011;72834;40.104;18.336;2023-10-08T01:40:59;18.05;;;8.68;;
83018;SDS011;72834;40.104;18.336;2023-10-08T01:43:31;18.85;;;8.48;;
83018;SDS011;72834;40.104;18.336;2023-10-08T01:45:57;20.42;;;9.88;;
83018;SDS011;72834;40.104;18.336;2023-10-08T01:48:24;17.35;;;8.73;;
83018;SDS011;72834;40.104;18.336;2023-10-08T01:51:03;18.70;;;8.38;;
83018;SDS011;72834;40.104;18.336;2023-10-08T01:53:35;18.80;;;9.02;;
83018;SDS011;72834;40.104;18.336;2023-10-08T01:56:02;20.15;;;8.93;;
83018;SDS011;72834;40.104;18.336;2023-10-08T01:58:29;19.25;;;9.73;;
83018;SDS011;72834;40.104;18.336;2023-10-08T02:00:56;22.85;;;9.52;;
83018;SDS011;72834;40.104;18.336;2023-10-08T02:03:25;23.45;;;9.40;;
83018;SDS011;72834;40.104;18.336;2023-10-08T02:05:55;18.88;;;9.95;;
83018;SDS011;72834;40.104;18.336;2023-10-08T02:08:24;21.73;;;8.75;;
83018;SDS011;72834;40.104;18.336;2023-10-08T02:10:52;17.77;;;9.57;;
83018;SDS011;72834;40.104;18.336;2023-10-08T02:13:18;16.98;;;7.53;;
83018;SDS011;72834;40.104;18.336;2023-10-08T02:15:45;17.00;;;8.25;;
83018;SDS011;72834;40.104;18.336;2023-10-08T02:18:17;15.75;;;8.70;;
83018;SDS011;72834;40.104;18.336;2023-10-08T02:20:44;19.85;;;8.95;;
83018;SDS011;72834;40.104;18.336;2023-10-08T02:23:11;17.23;;;8.38;;
83018;SDS011;72834;40.104;18.336;2023-10-08T02:25:38;15.38;;;8.23;;
83018;SDS011;72834;40.104;18.336;2023-10-08T02:28:08;18.95;;;9.63;;
83018;SDS011;72834;40.104;18.336;2023-10-08T02:30:37;21.88;;;9.02;;
83018;SDS011;72834;40.104;18.336;2023-10-08T02:33:05;16.65;;;9.02;;
83018;SDS011;72834;40.104;18.336;2023-10-08T02:35:40;15.48;;;8.30;;
83018;SDS011;72834;40.104;18.336;2023-10-08T02:38:11;21.83;;;9.48;;
83018;SDS011;72834;40.104;18.336;2023-10-08T02:40:39;17.15;;;8.88;;
83018;SDS011;72834;40.104;18.336;2023-10-08T02:43:16;19.40;;;9.23;;
83018;SDS011;72834;40.104;18.336;2023-10-08T02:45:44;20.27;;;9.88;;
83018;SDS011;72834;40.104;18.336;2023-10-08T02:48:15;18.08;;;9.65;;
83018;SDS011;72834;40.104;18.336;2023-10-08T02:50:44;17.92;;;8.68;;
83018;SDS011;72834;40.104;18.336;2023-10-08T02:53:14;17.73;;;9.23;;
83018;SDS011;72834;40.104;18.336;2023-10-08T02:55:51;16.80;;;8.85;;
83018;SDS011;72834;40.104;18.336;2023-10-08T02:58:19;18.52;;;9.15;;
83018;SDS011;72834;40.104;18.336;2023-10-08T03:00:46;13.43;;;7.20;;
83018;SDS011;72834;40.104;18.336;2023-10-08T03:03:14;14.35;;;7.35;;
83018;SDS011;72834;40.104;18.336;2023-10-08T03:05:45;14.93;;;8.32;;
83018;SDS011;72834;40.104;18.336;2023-10-08T03:10:49;16.75;;;8.10;;
83018;SDS011;72834;40.104;18.336;2023-10-08T03:13:28;14.75;;;8.73;;
83018;SDS011;72834;40.104;18.336;2023-10-08T03:15:55;18.63;;;7.93;;
83018;SDS011;72834;40.104;18.336;2023-10-08T03:21:03;14.55;;;7.93;;
83018;SDS011;72834;40.104;18.336;2023-10-08T03:23:30;15.20;;;8.02;;
83018;SDS011;72834;40.104;18.336;2023-10-08T03:26:04;14.32;;;7.88;;
83018;SDS011;72834;40.104;18.336;2023-10-08T03:28:30;17.55;;;9.10;;
83018;SDS011;72834;40.104;18.336;2023-10-08T03:31:01;14.70;;;8.77;;
83018;SDS011;72834;40.104;18.336;2023-10-08T03:33:31;19.58;;;8.63;;
83018;SDS011;72834;40.104;18.336;2023-10-08T03:36:03;14.75;;;7.78;;
83018;SDS011;72834;40.104;18.336;2023-10-08T03:38:46;17.33;;;7.97;;
83018;SDS011;72834;40.104;18.336;2023-10-08T03:41:17;15.48;;;7.47;;
83018;SDS011;72834;40.104;18.336;2023-10-08T03:43:53;12.85;;;6.97;;
83018;SDS011;72834;40.104;18.336;2023-10-08T03:46:31;16.10;;;7.38;;
83018;SDS011;72834;40.104;18.336;2023-10-08T03:49:05;12.05;;;6.82;;
83018;SDS011;72834;40.104;18.336;2023-10-08T03:51:50;14.02;;;6.80;;
83018;SDS011;72834;40.104;18.336;2023-10-08T03:54:18;17.10;;;7.00;;
83018;SDS011;72834;40.104;18.336;2023-10-08T03:56:45;14.15;;;6.57;;
83018;SDS011;72834;40.104;18.336;2023-10-08T03:59:12;16.17;;;6.88;;
83018;SDS011;72834;40.104;18.336;2023-10-08T04:02:05;12.65;;;6.93;;
83018;SDS011;72834;40.104;18.336;2023-10-08T04:04:41;16.08;;;6.97;;
83018;SDS011;72834;40.104;18.336;2023-10-08T04:07:18;14.45;;;6.55;;
83018;SDS011;72834;40.104;18.336;2023-10-08T04:10:04;13.55;;;6.03;;
83018;SDS011;72834;40.104;18.336;2023-10-08T04:12:34;15.52;;;7.45;;
83018;SDS011;72834;40.104;18.336;2023-10-08T04:15:01;13.75;;;6.53;;
83018;SDS011;72834;40.104;18.336;2023-10-08T04:17:33;13.82;;;6.80;;
83018;SDS011;72834;40.104;18.336;2023-10-08T04:20:13;12.30;;;6.05;;
83018;SDS011;72834;40.104;18.336;2023-10-08T04:22:59;12.60;;;6.80;;
83018;SDS011;72834;40.104;18.336;2023-10-08T04:25:26;16.77;;;7.60;;
83018;SDS011;72834;40.104;18.336;2023-10-08T04:27:56;15.70;;;8.70;;
83018;SDS011;72834;40.104;18.336;2023-10-08T04:30:27;35.75;;;17.63;;
83018;SDS011;72834;40.104;18.336;2023-10-08T04:32:59;23.45;;;11.95;;
83018;SDS011;72834;40.104;18.336;2023-10-08T04:35:35;16.00;;;7.78;;
83018;SDS011;72834;40.104;18.336;2023-10-08T04:38:05;11.40;;;6.22;;
83018;SDS011;72834;40.104;18.336;2023-10-08T04:43:07;13.27;;;5.70;;
83018;SDS011;72834;40.104;18.336;2023-10-08T04:45:36;13.60;;;5.57;;
83018;SDS011;72834;40.104;18.336;2023-10-08T04:48:04;14.00;;;6.63;;
83018;SDS011;72834;40.104;18.336;2023-10-08T04:50:36;13.15;;;6.38;;
83018;SDS011;72834;40.104;18.336;2023-10-08T04:53:03;12.27;;;5.90;;
83018;SDS011;72834;40.104;18.336;2023-10-08T04:55:36;15.00;;;6.07;;
83018;SDS011;72834;40.104;18.336;2023-10-08T04:58:08;10.00;;;5.20;;
83018;SDS011;72834;40.104;18.336;2023-10-08T05:00:45;11.00;;;5.93;;
83018;SDS011;72834;40.104;18.336;2023-10-08T05:03:25;11.75;;;5.78;;
83018;SDS011;72834;40.104;18.336;2023-10-08T05:05:57;14.98;;;5.95;;
83018;SDS011;72834;40.104;18.336;2023-10-08T05:08:46;80.75;;;8.43;;
83018;SDS011;72834;40.104;18.336;2023-10-08T05:11:14;15.85;;;6.25;;
83018;SDS011;72834;40.104;18.336;2023-10-08T05:13:50;11.55;;;5.25;;
83018;SDS011;72834;40.104;18.336;2023-10-08T05:16:31;12.38;;;6.00;;
83018;SDS011;72834;40.104;18.336;2023-10-08T05:19:09;15.07;;;5.63;;
83018;SDS011;72834;40.104;18.336;2023-10-08T05:22:03;12.35;;;6.13;;
83018;SDS011;72834;40.104;18.336;2023-10-08T05:24:48;14.25;;;6.60;;
83018;SDS011;72834;40.104;18.336;2023-10-08T05:27:51;15.48;;;5.50;;
83018;SDS011;72834;40.104;18.336;2023-10-08T05:30:21;13.02;;;5.80;;
83018;SDS011;72834;40.104;18.336;2023-10-08T05:33:03;13.45;;;5.85;;
83018;SDS011;72834;40.104;18.336;2023-10-08T05:35:43;11.77;;;5.85;;
83018;SDS011;72834;40.104;18.336;2023-10-08T05:38:12;11.48;;;5.50;;
83018;SDS011;72834;40.104;18.336;2023-10-08T05:40:56;15.40;;;6.90;;
83018;SDS011;72834;40.104;18.336;2023-10-08T05:43:42;16.50;;;7.07;;
83018;SDS011;72834;40.104;18.336;2023-10-08T05:46:12;16.65;;;7.05;;
83018;SDS011;72834;40.104;18.336;2023-10-08T05:51:28;16.73;;;6.78;;
83018;SDS011;72834;40.104;18.336;2023-10-08T05:54:16;17.08;;;7.53;;
83018;SDS011;72834;40.104;18.336;2023-10-08T05:57:11;19.10;;;7.53;;
83018;SDS011;72834;40.104;18.336;2023-10-08T06:02:24;18.40;;;7.82;;
83018;SDS011;72834;40.104;18.336;2023-10-08T06:05:02;15.18;;;7.05;;
83018;SDS011;72834;40.104;18.336;2023-10-08T06:07:42;18.67;;;8.35;;
83018;SDS011;72834;40.104;18.336;2023-10-08T06:10:19;16.00;;;7.72;;
83018;SDS011;72834;40.104;18.336;2023-10-08T06:13:10;17.50;;;8.77;;
83018;SDS011;72834;40.104;18.336;2023-10-08T06:16:09;18.88;;;8.68;;
83018;SDS011;72834;40.104;18.336;2023-10-08T06:18:39;17.73;;;9.35;;
83018;SDS011;72834;40.104;18.336;2023-10-08T06:21:05;20.02;;;8.80;;
83018;SDS011;72834;40.104;18.336;2023-10-08T06:26:04;17.08;;;8.05;;
83018;SDS011;72834;40.104;18.336;2023-10-08T06:28:40;18.27;;;8.32;;
83018;SDS011;72834;40.104;18.336;2023-10-08T06:31:07;17.15;;;7.72;;
83018;SDS011;72834;40.104;18.336;2023-10-08T06:33:38;18.83;;;9.43;;
83018;SDS011;72834;40.104;18.336;2023-10-08T06:36:07;21.33;;;8.27;;
83018;SDS011;72834;40.104;18.336;2023-10-08T06:38:42;14.25;;;8.65;;
83018;SDS011;72834;40.104;18.336;2023-10-08T06:41:10;13.77;;;6.47;;
83018;SDS011;72834;40.104;18.336;2023-10-08T06:43:38;15.20;;;6.75;;
83018;SDS011;72834;40.104;18.336;2023-10-08T06:46:05;14.18;;;7.32;;
83018;SDS011;72834;40.104;18.336;2023-10-08T06:48:38;19.65;;;6.90;;
83018;SDS011;72834;40.104;18.336;2023-10-08T06:51:08;15.65;;;7.45;;
83018;SDS011;72834;40.104;18.336;2023-10-08T06:53:47;14.98;;;6.90;;
83018;SDS011;72834;40.104;18.336;2023-10-08T06:56:14;14.18;;;6.93;;
83018;SDS011;72834;40.104;18.336;2023-10-08T06:58:43;12.40;;;6.45;;
83018;SDS011;72834;40.104;18.336;2023-10-08T07:01:14;17.88;;;7.47;;
83018;SDS011;72834;40.104;18.336;2023-10-08T07:03:47;12.35;;;5.78;;
83018;SDS011;72834;40.104;18.336;2023-10-08T07:06:18;11.77;;;6.25;;
83018;SDS011;72834;40.104;18.336;2023-10-08T07:08:58;14.57;;;6.45;;
83018;SDS011;72834;40.104;18.336;2023-10-08T07:11:25;12.70;;;6.10;;
83018;SDS011;72834;40.104;18.336;2023-10-08T07:13:55;12.52;;;5.85;;
83018;SDS011;72834;40.104;18.336;2023-10-08T07:16:22;13.63;;;6.30;;
83018;SDS011;72834;40.104;18.336;2023-10-08T07:18:48;13.98;;;6.30;;
83018;SDS011;72834;40.104;18.336;2023-10-08T07:21:18;15.45;;;6.65;;
83018;SDS011;72834;40.104;18.336;2023-10-08T07:23:49;11.80;;;6.20;;
83018;SDS011;72834;40.104;18.336;2023-10-08T07:26:23;11.75;;;5.55;;
83018;SDS011;72834;40.104;18.336;2023-10-08T07:28:50;11.25;;;5.55;;
83018;SDS011;72834;40.104;18.336;2023-10-08T07:31:18;11.13;;;5.07;;
83018;SDS011;72834;40.104;18.336;2023-10-08T07:33:48;11.00;;;5.00;;
83018;SDS011;72834;40.104;18.336;2023-10-08T07:36:25;16.30;;;5.63;;
83018;SDS011;72834;40.104;18.336;2023-10-08T07:38:52;10.65;;;4.75;;
83018;SDS011;72834;40.104;18.336;2023-10-08T07:41:19;13.38;;;6.28;;
83018;SDS011;72834;40.104;18.336;2023-10-08T07:43:46;10.80;;;4.20;;
83018;SDS011;72834;40.104;18.336;2023-10-08T07:46:27;10.85;;;4.43;;
83018;SDS011;72834;40.104;18.336;2023-10-08T07:48:54;10.38;;;4.40;;
83018;SDS011;72834;40.104;18.336;2023-10-08T07:51:21;12.52;;;4.95;;
83018;SDS011;72834;40.104;18.336;2023-10-08T07:53:52;10.48;;;4.60;;
83018;SDS011;72834;40.104;18.336;2023-10-08T07:56:22;8.90;;;4.30;;
83018;SDS011;72834;40.104;18.336;2023-10-08T07:58:52;10.80;;;4.63;;
83018;SDS011;72834;40.104;18.336;2023-10-08T08:01:22;12.27;;;4.93;;
83018;SDS011;72834;40.104;18.336;2023-10-08T08:03:50;8.68;;;3.90;;
83018;SDS011;72834;40.104;18.336;2023-10-08T08:06:17;11.40;;;4.53;;
83018;SDS011;72834;40.104;18.336;2023-10-08T08:08:43;9.18;;;4.22;;
83018;SDS011;72834;40.104;18.336;2023-10-08T08:11:10;10.27;;;4.93;;
83018;SDS011;72834;40.104;18.336;2023-10-08T08:13:43;9.00;;;4.57;;
83018;SDS011;72834;40.104;18.336;2023-10-08T08:16:11;10.02;;;3.72;;
83018;SDS011;72834;40.104;18.336;2023-10-08T08:18:48;8.50;;;3.78;;
83018;SDS011;72834;40.104;18.336;2023-10-08T08:21:16;11.40;;;4.35;;
83018;SDS011;72834;40.104;18.336;2023-10-08T08:23:45;9.65;;;3.55;;
83018;SDS011;72834;40.104;18.336;2023-10-08T08:28:54;10.60;;;3.90;;
83018;SDS011;72834;40.104;18.336;2023-10-08T08:31:25;8.05;;;3.63;;
83018;SDS011;72834;40.104;18.336;2023-10-08T08:33:52;8.75;;;3.75;;
83018;SDS011;72834;40.104;18.336;2023-10-08T08:36:19;8.45;;;3.40;;
83018;SDS011;72834;40.104;18.336;2023-10-08T08:38:47;9.27;;;3.70;;
83018;SDS011;72834;40.104;18.336;2023-10-08T08:41:13;10.18;;;3.42;;
83018;SDS011;72834;40.104;18.336;2023-10-08T08:43:53;8.48;;;3.58;;
83018;SDS011;72834;40.104;18.336;2023-10-08T08:46:36;11.05;;;4.18;;
83018;SDS011;72834;40.104;18.336;2023-10-08T08:49:07;7.65;;;3.80;;
83018;SDS011;72834;40.104;18.336;2023-10-08T08:51:34;9.60;;;3.83;;
83018;SDS011;72834;40.104;18.336;2023-10-08T08:54:01;8.77;;;3.55;;
83018;SDS011;72834;40.104;18.336;2023-10-08T08:56:40;8.32;;;3.35;;
83018;SDS011;72834;40.104;18.336;2023-10-08T08:59:09;8.18;;;3.50;;
83018;SDS011;72834;40.104;18.336;2023-10-08T09:01:39;7.78;;;2.80;;
83018;SDS011;72834;40.104;18.336;2023-10-08T09:04:07;9.88;;;3.10;;
83018;SDS011;72834;40.104;18.336;2023-10-08T09:06:34;12.98;;;2.70;;
83018;SDS011;72834;40.104;18.336;2023-10-08T09:09:06;8.98;;;2.67;;
83018;SDS011;72834;40.104;18.336;2023-10-08T09:11:48;7.88;;;2.53;;
83018;SDS011;72834;40.104;18.336;2023-10-08T09:14:21;7.28;;;2.70;;
83018;SDS011;72834;40.104;18.336;2023-10-08T09:16:51;6.10;;;2.83;;
83018;SDS011;72834;40.104;18.336;2023-10-08T09:19:20;8.73;;;3.05;;
83018;SDS011;72834;40.104;18.336;2023-10-08T09:22:06;7.97;;;2.90;;
83018;SDS011;72834;40.104;18.336;2023-10-08T09:24:35;7.93;;;2.60;;
83018;SDS011;72834;40.104;18.336;2023-10-08T09:27:05;7.38;;;2.92;;
83018;SDS011;72834;40.104;18.336;2023-10-08T09:29:36;6.28;;;2.13;;
83018;SDS011;72834;40.104;18.336;2023-10-08T09:32:08;6.32;;;2.30;;
83018;SDS011;72834;40.104;18.336;2023-10-08T09:34:37;7.15;;;2.28;;
83018;SDS011;72834;40.104;18.336;2023-10-08T09:37:03;7.75;;;2.70;;
83018;SDS011;72834;40.104;18.336;2023-10-08T09:39:30;4.93;;;2.10;;
83018;SDS011;72834;40.104;18.336;2023-10-08T09:42:00;7.75;;;2.55;;
83018;SDS011;72834;40.104;18.336;2023-10-08T09:44:28;8.45;;;2.80;;
83018;SDS011;72834;40.104;18.336;2023-10-08T09:47:02;7.38;;;2.30;;
83018;SDS011;72834;40.104;18.336;2023-10-08T09:49:36;5.95;;;2.13;;
83018;SDS011;72834;40.104;18.336;2023-10-08T09:52:21;6.40;;;2.80;;
83018;SDS011;72834;40.104;18.336;2023-10-08T09:55:02;8.73;;;2.20;;
83018;SDS011;72834;40.104;18.336;2023-10-08T10:00:46;7.72;;;3.25;;
83018;SDS011;72834;40.104;18.336;2023-10-08T10:03:14;6.40;;;2.65;;
83018;SDS011;72834;40.104;18.336;2023-10-08T10:05:44;6.40;;;2.80;;
83018;SDS011;72834;40.104;18.336;2023-10-08T10:08:12;9.13;;;3.05;;
83018;SDS011;72834;40.104;18.336;2023-10-08T10:10:40;9.70;;;3.45;;
83018;SDS011;72834;40.104;18.336;2023-10-08T10:13:15;5.55;;;2.63;;
83018;SDS011;72834;40.104;18.336;2023-10-08T10:15:43;8.48;;;2.90;;
83018;SDS011;72834;40.104;18.336;2023-10-08T10:18:13;9.55;;;3.33;;
83018;SDS011;72834;40.104;18.336;2023-10-08T10:20:44;7.55;;;3.20;;
83018;SDS011;72834;40.104;18.336;2023-10-08T10:26:20;8.88;;;2.63;;
83018;SDS011;72834;40.104;18.336;2023-10-08T10:31:44;9.80;;;3.28;;
83018;SDS011;72834;40.104;18.336;2023-10-08T10:34:18;8.05;;;3.25;;
83018;SDS011;72834;40.104;18.336;2023-10-08T10:36:46;8.32;;;3.38;;
83018;SDS011;72834;40.104;18.336;2023-10-08T10:39:18;9.27;;;3.92;;
83018;SDS011;72834;40.104;18.336;2023-10-08T10:41:56;8.73;;;3.30;;
83018;SDS011;72834;40.104;18.336;2023-10-08T10:44:27;7.82;;;3.50;;
83018;SDS011;72834;40.104;18.336;2023-10-08T10:46:58;7.77;;;3.33;;
83018;SDS011;72834;40.104;18.336;2023-10-08T10:49:43;11.25;;;3.75;;
83018;SDS011;72834;40.104;18.336;2023-10-08T10:52:14;10.60;;;3.60;;
83018;SDS011;72834;40.104;18.336;2023-10-08T10:55:03;7.68;;;2.90;;
83018;SDS011;72834;40.104;18.336;2023-10-08T10:57:55;10.25;;;3.08;;
83018;SDS011;72834;40.104;18.336;2023-10-08T11:00:29;11.32;;;3.60;;
83018;SDS011;72834;40.104;18.336;2023-10-08T11:03:01;9.48;;;3.25;;
83018;SDS011;72834;40.104;18.336;2023-10-08T11:05:30;9.38;;;3.00;;
83018;SDS011;72834;40.104;18.336;2023-10-08T11:08:04;9.82;;;3.30;;
83018;SDS011;72834;40.104;18.336;2023-10-08T11:10:34;6.80;;;2.95;;
83018;SDS011;72834;40.104;18.336;2023-10-08T11:13:06;7.03;;;2.55;;
83018;SDS011;72834;40.104;18.336;2023-10-08T11:15:40;6.50;;;2.67;;
83018;SDS011;72834;40.104;18.336;2023-10-08T11:18:15;9.45;;;2.65;;
83018;SDS011;72834;40.104;18.336;2023-10-08T11:20:43;6.82;;;2.75;;
83018;SDS011;72834;40.104;18.336;2023-10-08T11:23:10;7.32;;;2.50;;
83018;SDS011;72834;40.104;18.336;2023-10-08T11:25:59;6.82;;;2.90;;
83018;SDS011;72834;40.104;18.336;2023-10-08T11:31:21;8.65;;;2.67;;
83018;SDS011;72834;40.104;18.336;2023-10-08T11:33:46;7.32;;;2.72;;
83018;SDS011;72834;40.104;18.336;2023-10-08T11:36:23;8.05;;;2.60;;
83018;SDS011;72834;40.104;18.336;2023-10-08T11:38:59;5.78;;;2.30;;
83018;SDS011;72834;40.104;18.336;2023-10-08T11:41:37;6.85;;;2.72;;
83018;SDS011;72834;40.104;18.336;2023-10-08T11:44:20;6.05;;;2.70;;
83018;SDS011;72834;40.104;18.336;2023-10-08T11:46:49;6.60;;;3.25;;
83018;SDS011;72834;40.104;18.336;2023-10-08T11:49:17;5.90;;;2.60;;
83018;SDS011;72834;40.104;18.336;2023-10-08T11:51:45;6.32;;;2.28;;
83018;SDS011;72834;40.104;18.336;2023-10-08T11:54:12;6.53;;;2.42;;
83018;SDS011;72834;40.104;18.336;2023-10-08T11:56:40;11.27;;;3.58;;
83018;SDS011;72834;40.104;18.336;2023-10-08T11:59:06;7.53;;;2.65;;
83018;SDS011;72834;40.104;18.336;2023-10-08T12:01:37;8.40;;;2.23;;
83018;SDS011;72834;40.104;18.336;2023-10-08T12:04:11;6.10;;;2.30;;
83018;SDS011;72834;40.104;18.336;2023-10-08T12:06:41;9.23;;;2.55;;
83018;SDS011;72834;40.104;18.336;2023-10-08T12:09:18;5.88;;;2.45;;
83018;SDS011;72834;40.104;18.336;2023-10-08T12:11:49;10.65;;;2.95;;
83018;SDS011;72834;40.104;18.336;2023-10-08T12:14:17;7.28;;;2.40;;
83018;SDS011;72834;40.104;18.336;2023-10-08T12:16:44;6.10;;;2.60;;
83018;SDS011;72834;40.104;18.336;2023-10-08T12:19:11;6.00;;;2.58;;
83018;SDS011;72834;40.104;18.336;2023-10-08T12:21:43;7.80;;;3.13;;
83018;SDS011;72834;40.104;18.336;2023-10-08T12:24:13;4.88;;;2.40;;
83018;SDS011;72834;40.104;18.336;2023-10-08T12:26:40;5.28;;;2.25;;
83018;SDS011;72834;40.104;18.336;2023-10-08T12:29:12;9.85;;;2.80;;
83018;SDS011;72834;40.104;18.336;2023-10-08T12:31:45;6.47;;;2.80;;
83018;SDS011;72834;40.104;18.336;2023-10-08T12:34:13;10.25;;;3.05;;
83018;SDS011;72834;40.104;18.336;2023-10-08T12:36:40;9.48;;;3.28;;
83018;SDS011;72834;40.104;18.336;2023-10-08T12:39:07;8.75;;;2.58;;
83018;SDS011;72834;40.104;18.336;2023-10-08T12:41:47;6.78;;;2.80;;
83018;SDS011;72834;40.104;18.336;2023-10-08T12:44:20;7.30;;;2.95;;
83018;SDS011;72834;40.104;18.336;2023-10-08T12:46:47;6.72;;;3.00;;
83018;SDS011;72834;40.104;18.336;2023-10-08T12:49:14;8.35;;;2.85;;
83018;SDS011;72834;40.104;18.336;2023-10-08T12:51:41;7.80;;;2.85;;
83018;SDS011;72834;40.104;18.336;2023-10-08T12:54:10;7.50;;;3.25;;
83018;SDS011;72834;40.104;18.336;2023-10-08T12:56:38;7.13;;;2.85;;
83018;SDS011;72834;40.104;18.336;2023-10-08T12:59:05;11.05;;;3.63;;
83018;SDS011;72834;40.104;18.336;2023-10-08T13:01:34;11.15;;;3.10;;
83018;SDS011;72834;40.104;18.336;2023-10-08T13:04:06;7.15;;;2.97;;
83018;SDS011;72834;40.104;18.336;2023-10-08T13:06:34;8.82;;;2.92;;
83018;SDS011;72834;40.104;18.336;2023-10-08T13:09:03;9.65;;;2.90;;
83018;SDS011;72834;40.104;18.336;2023-10-08T13:11:38;7.43;;;2.83;;
83018;SDS011;72834;40.104;18.336;2023-10-08T13:14:05;5.95;;;2.65;;
83018;SDS011;72834;40.104;18.336;2023-10-08T13:16:31;7.13;;;2.78;;
83018;SDS011;72834;40.104;18.336;2023-10-08T13:18:58;9.00;;;3.28;;
83018;SDS011;72834;40.104;18.336;2023-10-08T13:21:25;8.65;;;2.83;;
83018;SDS011;72834;40.104;18.336;2023-10-08T13:23:54;8.52;;;3.25;;
83018;SDS011;72834;40.104;18.336;2023-10-08T13:26:26;5.53;;;2.50;;
83018;SDS011;72834;40.104;18.336;2023-10-08T13:28:57;6.32;;;2.53;;
83018;SDS011;72834;40.104;18.336;2023-10-08T13:31:24;11.95;;;3.25;;
83018;SDS011;72834;40.104;18.336;2023-10-08T13:33:54;8.38;;;3.00;;
83018;SDS011;72834;40.104;18.336;2023-10-08T13:36:28;7.10;;;2.88;;
83018;SDS011;72834;40.104;18.336;2023-10-08T13:38:54;8.82;;;3.15;;
83018;SDS011;72834;40.104;18.336;2023-10-08T13:41:22;8.75;;;2.95;;
83018;SDS011;72834;40.104;18.336;2023-10-08T13:43:50;6.82;;;2.55;;
83018;SDS011;72834;40.104;18.336;2023-10-08T13:46:30;6.47;;;2.17;;
83018;SDS011;72834;40.104;18.336;2023-10-08T13:49:03;10.52;;;3.05;;
83018;SDS011;72834;40.104;18.336;2023-10-08T13:51:32;8.32;;;3.10;;
83018;SDS011;72834;40.104;18.336;2023-10-08T13:54:00;7.40;;;3.10;;
83018;SDS011;72834;40.104;18.336;2023-10-08T13:56:32;8.23;;;3.42;;
83018;SDS011;72834;40.104;18.336;2023-10-08T14:01:53;8.70;;;3.10;;
83018;SDS011;72834;40.104;18.336;2023-10-08T14:04:22;6.97;;;3.20;;
83018;SDS011;72834;40.104;18.336;2023-10-08T14:07:01;12.57;;;3.67;;
83018;SDS011;72834;40.104;18.336;2023-10-08T14:09:29;6.40;;;2.58;;
83018;SDS011;72834;40.104;18.336;2023-10-08T14:12:02;7.82;;;2.95;;
83018;SDS011;72834;40.104;18.336;2023-10-08T14:14:29;10.45;;;3.35;;
83018;SDS011;72834;40.104;18.336;2023-10-08T14:16:56;8.50;;;3.33;;
83018;SDS011;72834;40.104;18.336;2023-10-08T14:19:28;10.60;;;3.20;;
83018;SDS011;72834;40.104;18.336;2023-10-08T14:22:05;7.15;;;3.72;;
83018;SDS011;72834;40.104;18.336;2023-10-08T14:24:34;7.93;;;3.53;;
83018;SDS011;72834;40.104;18.336;2023-10-08T14:27:03;8.98;;;3.25;;
83018;SDS011;72834;40.104;18.336;2023-10-08T14:29:36;7.85;;;3.08;;
83018;SDS011;72834;40.104;18.336;2023-10-08T14:32:27;10.63;;;3.85;;
83018;SDS011;72834;40.104;18.336;2023-10-08T14:34:53;7.43;;;3.03;;
83018;SDS011;72834;40.104;18.336;2023-10-08T14:37:20;12.27;;;3.40;;
83018;SDS011;72834;40.104;18.336;2023-10-08T14:40:05;8.07;;;3.15;;
83018;SDS011;72834;40.104;18.336;2023-10-08T14:42:50;10.68;;;3.30;;
83018;SDS011;72834;40.104;18.336;2023-10-08T14:45:31;9.63;;;3.58;;
83018;SDS011;72834;40.104;18.336;2023-10-08T14:48:06;10.30;;;3.92;;
83018;SDS011;72834;40.104;18.336;2023-10-08T14:50:36;12.23;;;3.67;;
83018;SDS011;72834;40.104;18.336;2023-10-08T14:53:04;8.35;;;3.17;;
83018;SDS011;72834;40.104;18.336;2023-10-08T14:55:35;7.47;;;3.40;;
83018;SDS011;72834;40.104;18.336;2023-10-08T14:58:02;9.52;;;3.95;;
83018;SDS011;72834;40.104;18.336;2023-10-08T15:00:36;8.38;;;4.00;;
83018;SDS011;72834;40.104;18.336;2023-10-08T15:03:04;10.55;;;3.38;;
83018;SDS011;72834;40.104;18.336;2023-10-08T15:05:31;10.55;;;3.83;;
83018;SDS011;72834;40.104;18.336;2023-10-08T15:07:58;6.45;;;2.75;;
83018;SDS011;72834;40.104;18.336;2023-10-08T15:10:24;10.35;;;3.75;;
83018;SDS011;72834;40.104;18.336;2023-10-08T15:12:51;7.35;;;3.10;;
83018;SDS011;72834;40.104;18.336;2023-10-08T15:15:19;7.35;;;3.53;;
83018;SDS011;72834;40.104;18.336;2023-10-08T15:17:49;7.53;;;3.15;;
83018;SDS011;72834;40.104;18.336;2023-10-08T15:20:15;9.07;;;3.55;;
83018;SDS011;72834;40.104;18.336;2023-10-08T15:22:43;10.48;;;3.65;;
83018;SDS011;72834;40.104;18.336;2023-10-08T15:25:13;6.97;;;3.30;;
83018;SDS011;72834;40.104;18.336;2023-10-08T15:27:42;8.02;;;2.88;;